Time;durP1;ratioP1;P1;durP2;ratioP2;P2;SDS_P1;SDS_P2;PMS_P1;PMS_P2;Temp;Humidity;BMP_temperature;BMP_pressure;BME280_temperature;BME280_humidity;BME280_pressure;Samples;Min_cycle;Max_cycle;Signal;HPM_P1;HPM_P2
2023/11/12 04:02:34;;;;;;;4.45;2.80;;;9.50;99.90;;;;;;5138560;23;20097;-79
2023/11/12 04:05:00;;;;;;;3.03;2.03;;;9.50;99.90;;;;;;5065157;28;20064;-77
2023/11/12 04:07:25;;;;;;;3.67;2.35;;;9.50;99.90;;;;;;5051125;28;20028;-77
2023/11/12 04:09:51;;;;;;;2.72;2.30;;;9.50;99.90;;;;;;5052424;28;20040;-76
2023/11/12 04:12:17;;;;;;;3.25;2.30;;;9.50;99.90;;;;;;5063560;28;20529;-77
2023/11/12 04:14:42;;;;;;;3.72;2.38;;;9.50;99.90;;;;;;5062959;28;20401;-78
2023/11/12 04:17:08;;;;;;;4.25;2.33;;;9.50;99.90;;;;;;5063915;28;20078;-78
2023/11/12 04:19:33;;;;;;;4.47;2.10;;;9.50;99.90;;;;;;5066475;28;20036;-77
2023/11/12 04:21:59;;;;;;;5.43;2.47;;;9.50;99.90;;;;;;5068638;28;20013;-78
2023/11/12 04:24:26;;;;;;;4.90;2.70;;;9.50;99.90;;;;;;5082711;28;20025;-77
2023/11/12 04:26:52;;;;;;;4.43;2.42;;;9.50;99.90;;;;;;5064691;28;20025;-78
2023/11/12 04:29:18;;;;;;;4.25;2.78;;;9.50;99.90;;;;;;5064288;28;20036;-78
2023/11/12 04:31:44;;;;;;;3.85;2.85;;;9.50;99.90;;;;;;5067648;28;20075;-76
2023/11/12 04:34:09;;;;;;;3.78;2.90;;;9.50;99.90;;;;;;5068808;28;20020;-78
2023/11/12 04:36:38;;;;;;;4.25;3.13;;;9.50;99.90;;;;;;5063483;28;20027;-77
2023/11/12 04:39:04;;;;;;;5.10;2.83;;;9.50;99.90;;;;;;5062666;28;20090;-77
2023/11/12 04:41:30;;;;;;;4.55;2.92;;;9.50;99.90;;;;;;5064823;28;20509;-77
2023/11/12 04:43:55;;;;;;;4.85;2.75;;;9.50;99.90;;;;;;5066657;28;20013;-76
2023/11/12 04:46:21;;;;;;;5.43;2.83;;;9.50;99.90;;;;;;5069031;28;20512;-78
2023/11/12 04:48:47;;;;;;;6.30;3.10;;;9.50;99.90;;;;;;5079018;28;20052;-77
2023/11/12 04:51:13;;;;;;;6.55;2.75;;;9.50;99.90;;;;;;5062947;28;20108;-77
2023/11/12 04:53:40;;;;;;;4.63;2.80;;;9.50;99.90;;;;;;5068113;28;20039;-78
2023/11/12 04:56:10;;;;;;;5.15;2.92;;;9.50;99.90;;;;;;5069048;28;20393;-77
2023/11/12 04:58:36;;;;;;;;;;;9.50;99.90;;;;;;5065388;28;20352;-77
2023/11/12 05:01:06;;;;;;;4.68;3.08;;;9.50;99.90;;;;;;5063068;28;19959;-76
2023/11/12 05:03:32;;;;;;;3.33;2.60;;;9.50;99.90;;;;;;5064527;28;20020;-78
2023/11/12 05:05:59;;;;;;;3.38;2.47;;;9.50;99.90;;;;;;5067169;28;20034;-77
2023/11/12 05:08:25;;;;;;;3.70;2.30;;;9.50;99.90;;;;;;5068064;28;20083;-77
2023/11/12 05:10:50;;;;;;;7.50;2.58;;;9.50;99.90;;;;;;5059950;28;20020;-77
2023/11/12 05:13:16;;;;;;;4.63;2.70;;;9.50;99.90;;;;;;5061149;28;20098;-78
2023/11/12 05:15:42;;;;;;;3.72;2.42;;;9.50;99.90;;;;;;5066890;28;20495;-78
2023/11/12 05:18:07;;;;;;;6.15;2.70;;;9.50;99.90;;;;;;5062965;28;20131;-77
2023/11/12 05:20:33;;;;;;;4.07;2.67;;;9.50;99.90;;;;;;5068285;28;20116;-77
2023/11/12 05:23:00;;;;;;;2.55;2.35;;;9.50;99.90;;;;;;5062421;28;20015;-77
2023/11/12 05:25:26;;;;;;;3.70;2.70;;;9.50;99.90;;;;;;5063023;28;20126;-78
2023/11/12 05:27:52;;;;;;;4.63;2.60;;;9.50;99.90;;;;;;5066037;28;20811;-77
2023/11/12 05:30:18;;;;;;;4.85;2.83;;;9.50;99.90;;;;;;5066667;28;20074;-77
2023/11/12 05:32:43;;;;;;;4.13;2.35;;;9.50;99.90;;;;;;5065123;28;20041;-77
2023/11/12 05:35:09;;;;;;;5.35;2.75;;;9.40;99.90;;;;;;5063369;28;20021;-78
2023/11/12 05:37:34;;;;;;;2.72;2.15;;;9.50;99.90;;;;;;5064993;28;20651;-77
2023/11/12 05:40:00;;;;;;;10.02;2.88;;;9.50;99.90;;;;;;5067846;28;20473;-77
2023/11/12 05:42:25;;;;;;;4.07;2.67;;;9.40;99.90;;;;;;5065496;28;20025;-78
2023/11/12 05:44:51;;;;;;;8.75;2.53;;;9.40;99.90;;;;;;5067654;28;20017;-77
2023/11/12 05:47:17;;;;;;;4.93;2.33;;;9.50;99.90;;;;;;5061585;28;20032;-78
2023/11/12 05:49:42;;;;;;;6.07;3.03;;;9.40;99.90;;;;;;5063751;28;20016;-77
2023/11/12 05:52:08;;;;;;;5.97;2.78;;;9.50;99.90;;;;;;5059319;28;20075;-77
2023/11/12 05:54:34;;;;;;;3.72;2.60;;;9.50;99.90;;;;;;5055727;28;20027;-77
2023/11/12 05:56:59;;;;;;;6.47;3.00;;;9.50;99.90;;;;;;5054717;28;20469;-76
2023/11/12 05:59:25;;;;;;;5.18;2.55;;;9.40;99.90;;;;;;5071653;28;20013;-78
2023/11/12 06:01:50;;;;;;;4.30;2.47;;;9.50;99.90;;;;;;5069393;28;20035;-78
2023/11/12 06:04:16;;;;;;;3.92;2.33;;;9.50;99.90;;;;;;5066995;28;20020;-78
2023/11/12 06:06:42;;;;;;;4.70;2.83;;;9.40;99.90;;;;;;5066297;28;20029;-77
2023/11/12 06:09:07;;;;;;;6.03;2.67;;;9.50;99.90;;;;;;5058790;28;20029;-79
2023/11/12 06:11:37;;;;;;;4.15;2.53;;;9.40;99.90;;;;;;5066529;28;20432;-79
2023/11/12 06:14:02;;;;;;;5.30;2.58;;;9.40;99.90;;;;;;5062749;28;20048;-77
2023/11/12 06:16:28;;;;;;;7.43;3.13;;;9.50;99.90;;;;;;5069901;28;20094;-77
2023/11/12 06:18:53;;;;;;;6.78;2.55;;;9.50;99.90;;;;;;5053548;28;20033;-77
2023/11/12 06:21:19;;;;;;;5.05;2.55;;;9.50;99.90;;;;;;5059687;28;20041;-77
2023/11/12 06:23:45;;;;;;;6.05;2.60;;;9.40;99.90;;;;;;5062297;28;20036;-77
2023/11/12 06:26:11;;;;;;;4.18;2.60;;;9.50;99.90;;;;;;5064827;28;20067;-77
2023/11/12 06:28:37;;;;;;;6.75;2.85;;;9.40;99.90;;;;;;5058786;28;20044;-77
2023/11/12 06:31:03;;;;;;;3.70;2.30;;;9.50;99.90;;;;;;5055726;28;20029;-77
2023/11/12 06:33:28;;;;;;;6.03;2.60;;;9.50;99.90;;;;;;5060362;28;20020;-77
2023/11/12 06:35:54;;;;;;;6.10;3.22;;;9.50;99.90;;;;;;5059422;28;20504;-77
2023/11/12 06:38:20;;;;;;;3.95;2.80;;;9.40;99.90;;;;;;5064385;28;20032;-77
2023/11/12 06:40:45;;;;;;;6.07;2.90;;;9.40;99.90;;;;;;5068580;28;20095;-77
2023/11/12 06:43:11;;;;;;;5.65;3.20;;;9.40;99.90;;;;;;5056308;28;20928;-76
2023/11/12 06:45:37;;;;;;;8.68;3.67;;;9.40;99.90;;;;;;5056639;28;20525;-77
2023/11/12 06:48:03;;;;;;;6.97;3.60;;;9.50;99.90;;;;;;5060876;28;20146;-77
2023/11/12 06:50:29;;;;;;;4.00;2.83;;;9.50;99.90;;;;;;5066139;28;20401;-76
2023/11/12 06:52:54;;;;;;;7.43;3.05;;;9.40;99.90;;;;;;5063726;28;20025;-77
2023/11/12 06:55:20;;;;;;;5.65;3.35;;;9.40;99.90;;;;;;5061799;28;20114;-77
2023/11/12 06:57:47;;;;;;;7.88;3.05;;;9.40;99.90;;;;;;5062290;28;20025;-78
2023/11/12 07:00:13;;;;;;;6.35;3.20;;;9.50;99.90;;;;;;5062252;28;20414;-76
2023/11/12 07:02:39;;;;;;;5.60;3.47;;;9.40;99.90;;;;;;5065883;28;20025;-77
2023/11/12 07:05:05;;;;;;;3.90;2.95;;;9.50;99.90;;;;;;5062511;28;20504;-77
2023/11/12 07:07:31;;;;;;;4.13;2.75;;;9.50;99.90;;;;;;5054508;28;20039;-77
2023/11/12 07:09:57;;;;;;;5.75;2.95;;;9.50;99.90;;;;;;5057442;28;20055;-77
2023/11/12 07:12:23;;;;;;;6.95;2.92;;;9.40;99.90;;;;;;5064040;28;20040;-78
2023/11/12 07:14:48;;;;;;;4.28;2.90;;;9.50;99.90;;;;;;5067641;28;20024;-78
2023/11/12 07:17:14;;;;;;;6.00;3.53;;;9.50;99.90;;;;;;5062007;28;20036;-77
2023/11/12 07:19:42;;;;;;;5.43;2.90;;;9.50;99.90;;;;;;5057172;28;20038;-77
2023/11/12 07:22:09;;;;;;;4.30;3.15;;;9.50;99.90;;;;;;5059599;28;20017;-77
2023/11/12 07:24:35;;;;;;;6.13;2.83;;;9.50;99.90;;;;;;5063652;28;20103;-78
2023/11/12 07:27:01;;;;;;;5.72;2.92;;;9.50;99.90;;;;;;5065695;28;20017;-77
2023/11/12 07:29:26;;;;;;;4.97;3.10;;;9.50;99.90;;;;;;5056986;28;20535;-77
2023/11/12 07:31:54;;;;;;;7.10;3.15;;;9.50;99.90;;;;;;5073401;28;20033;-77
2023/11/12 07:34:19;;;;;;;5.45;3.17;;;9.50;99.90;;;;;;5060983;28;20385;-78
2023/11/12 07:36:45;;;;;;;6.22;3.30;;;9.50;99.90;;;;;;5064896;28;20020;-77
2023/11/12 07:39:12;;;;;;;5.65;3.13;;;9.50;99.90;;;;;;5064962;28;20074;-77
2023/11/12 07:41:38;;;;;;;8.10;3.58;;;9.50;99.90;;;;;;5053274;28;20389;-77
2023/11/12 07:44:05;;;;;;;12.63;3.83;;;9.50;99.90;;;;;;5057252;28;20027;-76
2023/11/12 07:46:30;;;;;;;6.65;3.65;;;9.50;99.90;;;;;;5061856;28;20019;-77
2023/11/12 07:48:57;;;;;;;10.98;4.38;;;9.50;99.90;;;;;;5064116;28;20021;-77
2023/11/12 07:51:23;;;;;;;5.82;3.80;;;9.50;99.90;;;;;;5060570;28;20024;-78
2023/11/12 07:53:49;;;;;;;6.70;3.55;;;9.50;99.90;;;;;;5057532;28;20017;-77
2023/11/12 07:56:15;;;;;;;7.63;3.83;;;9.50;99.90;;;;;;5058685;28;20481;-77
2023/11/12 07:58:40;;;;;;;8.45;3.42;;;9.50;99.90;;;;;;5062321;28;20024;-78
2023/11/12 08:01:06;;;;;;;8.07;3.78;;;9.50;99.90;;;;;;5067276;28;20515;-76
2023/11/12 08:03:32;;;;;;;8.93;4.40;;;9.50;99.90;;;;;;5056324;28;20032;-76
2023/11/12 08:05:58;;;;;;;14.00;4.85;;;9.50;99.90;;;;;;5057466;28;20381;-77
2023/11/12 08:08:24;;;;;;;11.98;5.30;;;9.50;99.90;;;;;;5059733;28;20074;-78
2023/11/12 08:10:49;;;;;;;16.30;5.07;;;9.50;99.90;;;;;;5063680;28;20051;-76
2023/11/12 08:13:15;;;;;;;14.30;5.10;;;9.50;99.90;;;;;;5063163;28;20098;-77
2023/11/12 08:15:41;;;;;;;10.80;4.82;;;9.50;99.90;;;;;;5064569;28;20033;-78
2023/11/12 08:18:07;;;;;;;14.98;5.32;;;9.50;99.90;;;;;;5058969;28;20115;-78
2023/11/12 08:20:34;;;;;;;9.45;4.70;;;9.50;99.90;;;;;;5060229;28;20021;-78
2023/11/12 08:23:00;;;;;;;18.67;6.05;;;9.50;99.90;;;;;;5064382;28;20009;-77
2023/11/12 08:25:25;;;;;;;11.30;5.78;;;9.50;99.90;;;;;;5063682;28;20025;-77
2023/11/12 08:27:51;;;;;;;11.90;5.25;;;9.50;99.90;;;;;;5053132;28;20021;-76
2023/11/12 08:30:18;;;;;;;17.58;5.85;;;9.50;99.90;;;;;;5056887;28;20029;-78
2023/11/12 08:32:44;;;;;;;12.55;5.85;;;9.50;99.90;;;;;;5062571;28;20020;-77
2023/11/12 08:35:09;;;;;;;15.93;6.00;;;9.50;99.90;;;;;;5064935;28;20017;-77
2023/11/12 08:37:35;;;;;;;14.45;5.53;;;9.60;99.90;;;;;;5060445;28;20466;-77
2023/11/12 08:40:02;;;;;;;14.15;6.13;;;9.60;99.90;;;;;;5057527;28;20016;-77
2023/11/12 08:42:28;;;;;;;13.73;6.20;;;9.60;99.90;;;;;;5062873;28;20023;-77
2023/11/12 08:44:55;;;;;;;13.20;5.50;;;9.60;99.90;;;;;;5065670;28;20469;-77
2023/11/12 08:47:21;;;;;;;13.02;5.75;;;9.60;99.90;;;;;;5071001;28;20095;-77
2023/11/12 08:49:46;;;;;;;14.45;6.00;;;9.60;99.90;;;;;;5059019;28;20553;-77
2023/11/12 08:52:14;;;;;;;10.95;5.55;;;9.60;99.90;;;;;;5057773;28;20112;-77
2023/11/12 08:54:40;;;;;;;11.32;5.93;;;9.60;99.90;;;;;;5062792;28;20031;-77
2023/11/12 08:57:06;;;;;;;11.60;6.13;;;9.60;99.90;;;;;;5066727;28;20021;-77
2023/11/12 08:59:31;;;;;;;16.85;6.47;;;9.60;99.90;;;;;;5070415;28;20527;-77
2023/11/12 09:01:57;;;;;;;9.57;6.10;;;9.60;99.90;;;;;;5058771;28;20717;-78
2023/11/12 09:04:23;;;;;;;13.18;6.03;;;9.60;99.90;;;;;;5059485;28;20469;-77
2023/11/12 09:06:48;;;;;;;14.27;6.13;;;9.60;99.90;;;;;;5069467;28;20021;-78
2023/11/12 09:09:15;;;;;;;12.02;5.93;;;9.60;99.90;;;;;;5066732;28;20078;-77
2023/11/12 09:11:41;;;;;;;14.10;6.22;;;9.60;99.90;;;;;;5070833;28;20021;-78
2023/11/12 09:14:07;;;;;;;12.93;6.03;;;9.60;99.90;;;;;;5067627;28;20443;-80
2023/11/12 09:16:34;;;;;;;15.27;6.60;;;9.60;99.90;;;;;;5060324;28;20477;-79
2023/11/12 09:19:05;;;;;;;10.32;5.63;;;9.60;99.90;;;;;;5064270;28;20523;-79
2023/11/12 09:21:31;;;;;;;10.93;5.68;;;9.60;99.90;;;;;;5065813;28;20013;-80
2023/11/12 09:23:57;;;;;;;12.98;6.20;;;9.60;99.90;;;;;;5070071;28;20481;-78
2023/11/12 09:26:23;;;;;;;10.52;6.15;;;9.60;99.90;;;;;;5057371;28;20029;-79
2023/11/12 09:28:50;;;;;;;15.98;6.15;;;9.60;99.90;;;;;;5067844;28;20059;-80
2023/11/12 09:31:16;;;;;;;13.35;6.88;;;9.60;99.90;;;;;;5064708;28;20029;-79
2023/11/12 09:33:41;;;;;;;13.90;6.55;;;9.60;99.90;;;;;;5069365;28;20024;-79
2023/11/12 09:36:07;;;;;;;16.33;6.60;;;9.60;99.90;;;;;;5074559;28;20025;-79
2023/11/12 09:38:36;;;;;;;13.70;6.30;;;9.60;99.90;;;;;;5058086;28;20472;-77
2023/11/12 09:41:03;;;;;;;12.13;6.72;;;9.60;99.90;;;;;;5061976;28;20100;-77
2023/11/12 09:43:30;;;;;;;15.27;6.72;;;9.50;99.90;;;;;;5067524;28;20214;-77
2023/11/12 09:45:57;;;;;;;15.45;7.57;;;9.60;99.90;;;;;;5063508;28;20023;-77
2023/11/12 09:48:42;;;;;;;15.45;7.32;;;9.60;99.90;;;;;;5071725;28;20027;-77
2023/11/12 09:51:09;;;;;;;13.57;6.47;;;9.50;99.90;;;;;;5061162;28;20051;-77
2023/11/12 09:53:40;;;;;;;15.25;7.35;;;9.60;99.90;;;;;;5064253;28;20698;-77
2023/11/12 09:56:09;;;;;;;16.98;7.93;;;9.60;99.90;;;;;;5067797;28;20541;-78
2023/11/12 09:58:36;;;;;;;19.00;7.93;;;9.60;99.90;;;;;;5066760;28;20025;-78
2023/11/12 10:01:01;;;;;;;16.40;7.80;;;9.60;99.90;;;;;;5073270;28;20021;-76
2023/11/12 10:03:27;;;;;;;18.73;8.05;;;9.60;99.90;;;;;;5060937;28;20039;-78
2023/11/12 10:05:53;;;;;;;17.38;8.00;;;9.60;99.90;;;;;;5065013;28;20074;-76
2023/11/12 10:08:18;;;;;;;18.13;8.35;;;9.60;99.90;;;;;;5068109;28;20024;-78
2023/11/12 10:10:44;;;;;;;15.27;8.32;;;9.60;99.90;;;;;;5064647;28;20078;-77
2023/11/12 10:13:12;;;;;;;15.45;7.30;;;9.60;99.90;;;;;;5055656;28;20432;-78
2023/11/12 10:15:38;;;;;;;18.70;8.45;;;9.60;99.90;;;;;;5062149;28;20021;-78
2023/11/12 10:18:03;;;;;;;15.82;7.78;;;9.60;99.90;;;;;;5064978;28;20020;-77
2023/11/12 10:20:31;;;;;;;19.35;7.63;;;9.60;99.90;;;;;;5068755;28;20016;-77
2023/11/12 10:22:57;;;;;;;23.33;9.40;;;9.60;99.90;;;;;;5062485;28;20017;-76
2023/11/12 10:25:49;;;;;;;20.67;9.07;;;9.60;99.90;;;;;;5057768;28;20377;-77
2023/11/12 10:28:15;;;;;;;26.05;9.27;;;9.60;99.90;;;;;;5060226;28;20116;-78
2023/11/12 10:30:42;;;;;;;22.63;9.50;;;9.60;99.90;;;;;;5067257;28;20024;-78
2023/11/12 10:33:23;;;;;;;21.98;9.75;;;9.60;99.90;;;;;;5066504;28;20402;-78
2023/11/12 10:35:49;;;;;;;19.55;9.32;;;9.60;99.90;;;;;;5055196;28;20549;-77
2023/11/12 10:38:17;;;;;;;20.90;9.50;;;9.60;99.90;;;;;;5059478;28;20120;-77
2023/11/12 10:41:03;;;;;;;20.65;9.27;;;9.60;99.90;;;;;;5066185;28;20019;-78
2023/11/12 10:43:33;;;;;;;19.27;10.07;;;9.60;99.90;;;;;;5068381;28;20013;-77
2023/11/12 10:46:01;;;;;;;20.77;10.35;;;9.60;99.90;;;;;;5065649;28;20009;-78
2023/11/12 10:48:36;;;;;;;23.15;10.40;;;9.60;99.90;;;;;;5059247;28;20534;-78
2023/11/12 10:51:07;;;;;;;26.30;9.90;;;9.60;99.90;;;;;;5062442;28;20016;-78
2023/11/12 10:53:35;;;;;;;22.38;10.75;;;9.60;99.90;;;;;;5066733;28;20025;-78
2023/11/12 10:56:02;;;;;;;23.13;10.10;;;9.60;99.90;;;;;;5064598;28;20016;-77
2023/11/12 10:58:29;;;;;;;22.73;10.73;;;9.60;99.90;;;;;;5057777;28;20390;-75
2023/11/12 11:01:00;;;;;;;24.60;11.00;;;9.60;99.90;;;;;;5058195;28;20024;-77
2023/11/12 11:03:30;;;;;;;25.25;11.15;;;9.60;99.90;;;;;;5079151;28;20021;-76
2023/11/12 11:05:57;;;;;;;25.00;10.63;;;9.60;99.90;;;;;;5067452;28;20548;-77
2023/11/12 11:08:30;;;;;;;23.83;11.82;;;9.60;99.90;;;;;;5064962;28;20029;-77
2023/11/12 11:10:57;;;;;;;25.30;11.00;;;9.60;99.90;;;;;;5057996;28;20542;-78
2023/11/12 11:13:25;;;;;;;21.92;11.40;;;9.60;99.90;;;;;;5060570;28;20028;-77
2023/11/12 11:15:54;;;;;;;26.55;12.23;;;9.60;99.90;;;;;;5063709;28;20545;-77
2023/11/12 11:18:31;;;;;;;27.95;11.18;;;9.70;99.90;;;;;;5066816;28;20025;-80
2023/11/12 11:21:02;;;;;;;25.48;10.85;;;9.60;99.90;;;;;;5063594;28;20131;-78
2023/11/12 11:23:41;;;;;;;27.90;10.63;;;9.60;99.90;;;;;;5057222;28;20014;-77
2023/11/12 11:26:27;;;;;;;22.38;10.90;;;9.60;99.90;;;;;;5060217;28;20029;-77
2023/11/12 11:29:05;;;;;;;22.92;10.98;;;9.60;99.90;;;;;;5065178;28;20028;-78
2023/11/12 11:31:38;;;;;;;29.70;10.82;;;9.60;99.90;;;;;;5065116;28;20041;-77
2023/11/12 11:34:05;;;;;;;20.20;10.38;;;9.60;99.90;;;;;;5057493;28;20013;-78
2023/11/12 11:36:31;;;;;;;21.77;9.13;;;9.60;99.90;;;;;;5061610;28;20029;-77
2023/11/12 11:39:06;;;;;;;20.77;9.20;;;9.60;99.90;;;;;;5060221;28;20033;-77
2023/11/12 11:41:50;;;;;;;22.42;9.55;;;9.70;99.90;;;;;;5067564;28;20023;-78
2023/11/12 11:44:31;;;;;;;18.80;9.35;;;9.60;99.90;;;;;;5058150;28;20036;-78
2023/11/12 11:47:21;;;;;;;15.98;8.65;;;9.60;99.90;;;;;;5057403;28;20021;-76
2023/11/12 11:49:48;;;;;;;;;;;9.60;99.90;;;;;;5059014;28;20037;-78
2023/11/12 11:52:24;;;;;;;13.52;6.90;;;9.60;99.90;;;;;;5063854;28;19905;-77
2023/11/12 11:55:20;;;;;;;12.60;6.43;;;9.60;99.90;;;;;;5068413;28;20150;-77
2023/11/12 11:57:47;;;;;;;13.15;6.95;;;9.60;99.90;;;;;;5061681;28;20023;-76
2023/11/12 12:00:15;;;;;;;13.13;6.55;;;9.60;99.90;;;;;;5066452;28;20051;-78
2023/11/12 12:02:42;;;;;;;11.40;5.45;;;9.60;99.90;;;;;;5062153;28;20029;-77
2023/11/12 12:05:08;;;;;;;13.85;6.43;;;9.60;99.90;;;;;;5062022;28;20032;-77
2023/11/12 12:07:34;;;;;;;10.70;6.38;;;9.60;99.90;;;;;;5067947;28;20024;-78
2023/11/12 12:10:00;;;;;;;11.15;6.07;;;9.60;99.90;;;;;;5058094;28;20028;-77
2023/11/12 12:12:26;;;;;;;11.90;6.28;;;9.60;99.90;;;;;;5064258;28;20025;-78
2023/11/12 12:14:52;;;;;;;13.23;6.30;;;9.60;99.90;;;;;;5069850;28;20638;-78
2023/11/12 12:17:18;;;;;;;10.27;5.97;;;9.60;99.90;;;;;;5070115;28;20033;-77
2023/11/12 12:19:50;;;;;;;10.38;6.18;;;9.60;99.90;;;;;;5062852;28;20491;-76
2023/11/12 12:22:22;;;;;;;8.65;5.68;;;9.60;99.90;;;;;;5061833;28;20103;-77
2023/11/12 12:24:49;;;;;;;9.50;5.57;;;9.60;99.90;;;;;;5065989;28;20097;-77
2023/11/12 12:27:15;;;;;;;10.05;5.65;;;9.60;99.90;;;;;;5069285;28;20388;-78
2023/11/12 12:29:46;;;;;;;9.57;5.68;;;9.60;99.90;;;;;;5072057;28;20016;-77
2023/11/12 12:32:18;;;;;;;12.40;6.72;;;9.60;99.90;;;;;;5064910;28;20017;-77
2023/11/12 12:34:45;;;;;;;9.38;5.97;;;9.70;99.90;;;;;;5081000;28;20030;-77
2023/11/12 12:37:18;;;;;;;12.55;6.03;;;9.70;99.90;;;;;;5084736;28;20033;-77
2023/11/12 12:39:50;;;;;;;10.75;6.20;;;9.70;99.90;;;;;;5069557;28;20020;-78
2023/11/12 12:42:19;;;;;;;10.60;6.20;;;9.60;99.90;;;;;;5063037;28;20108;-78
2023/11/12 12:44:51;;;;;;;11.15;6.10;;;9.60;99.90;;;;;;5062046;28;20020;-78
2023/11/12 12:47:41;;;;;;;8.73;5.57;;;9.60;99.90;;;;;;5079531;28;20388;-77
2023/11/12 12:50:21;;;;;;;12.38;5.18;;;9.70;99.90;;;;;;5068337;28;20107;-78
2023/11/12 12:52:47;;;;;;;9.93;5.97;;;9.60;99.90;;;;;;5083053;28;20025;-77
2023/11/12 12:55:18;;;;;;;9.60;5.55;;;9.60;99.90;;;;;;5059135;28;20029;-78
2023/11/12 12:57:49;;;;;;;12.98;6.32;;;9.70;99.90;;;;;;5080089;28;20481;-76
2023/11/12 13:00:20;;;;;;;13.20;6.70;;;9.60;99.90;;;;;;5062985;28;20538;-78
2023/11/12 13:02:49;;;;;;;12.45;7.05;;;9.60;99.90;;;;;;5069896;28;20103;-77
2023/11/12 13:05:19;;;;;;;8.15;5.45;;;9.60;99.90;;;;;;5068297;28;20017;-78
2023/11/12 13:07:50;;;;;;;12.20;5.50;;;9.60;99.90;;;;;;5066355;28;20028;-77
2023/11/12 13:10:21;;;;;;;7.60;5.43;;;9.60;99.90;;;;;;5066864;28;20154;-78
2023/11/12 13:12:54;;;;;;;8.13;5.45;;;9.60;99.90;;;;;;5065153;28;20012;-78
2023/11/12 13:15:20;;;;;;;8.30;4.75;;;9.60;99.90;;;;;;5068159;28;20024;-78
2023/11/12 13:17:46;;;;;;;7.10;4.45;;;9.60;99.90;;;;;;5062586;28;20020;-77
2023/11/12 13:20:15;;;;;;;7.22;4.60;;;9.60;99.90;;;;;;5068589;28;20116;-78
2023/11/12 13:22:43;;;;;;;9.87;4.83;;;9.70;99.90;;;;;;5065906;28;20024;-78
2023/11/12 13:25:12;;;;;;;7.68;4.97;;;9.70;99.90;;;;;;5067933;28;20020;-77
2023/11/12 13:27:38;;;;;;;5.80;3.70;;;9.60;99.90;;;;;;5063280;28;20024;-78
2023/11/12 13:30:06;;;;;;;7.78;3.83;;;9.60;99.90;;;;;;5064229;28;20055;-77
2023/11/12 13:32:33;;;;;;;7.82;3.55;;;9.60;99.90;;;;;;5062389;28;20021;-77
2023/11/12 13:35:00;;;;;;;7.32;3.80;;;9.60;99.90;;;;;;5064231;28;20024;-77
2023/11/12 13:37:28;;;;;;;5.47;3.50;;;9.60;99.90;;;;;;5067719;28;20551;-77
2023/11/12 13:39:53;;;;;;;4.45;3.10;;;9.60;99.90;;;;;;5070729;28;20020;-78
2023/11/12 13:42:22;;;;;;;4.85;3.33;;;9.60;99.90;;;;;;5076359;28;20025;-77
2023/11/12 13:44:48;;;;;;;6.40;3.60;;;9.60;99.90;;;;;;5065748;28;20036;-77
2023/11/12 13:47:16;;;;;;;4.72;2.95;;;9.60;99.90;;;;;;5064265;28;20020;-77
2023/11/12 13:49:43;;;;;;;5.55;3.17;;;9.60;99.90;;;;;;5066346;28;20024;-78
2023/11/12 13:52:13;;;;;;;5.43;3.08;;;9.60;99.90;;;;;;5063282;28;20025;-78
2023/11/12 13:54:40;;;;;;;3.85;2.50;;;9.60;99.90;;;;;;5061020;28;20389;-77
2023/11/12 13:57:05;;;;;;;3.63;2.30;;;9.60;99.90;;;;;;5065671;28;20078;-77
2023/11/12 13:59:31;;;;;;;3.05;2.25;;;9.60;99.90;;;;;;5066026;28;20020;-78
2023/11/12 14:01:56;;;;;;;4.65;2.40;;;9.60;99.90;;;;;;5069184;28;20020;-77
2023/11/12 14:04:23;;;;;;;4.07;2.30;;;9.60;99.90;;;;;;5063000;28;20082;-78
2023/11/12 14:06:50;;;;;;;3.72;2.28;;;9.60;99.90;;;;;;5063112;28;20013;-78
2023/11/12 14:09:17;;;;;;;2.70;2.35;;;9.50;99.90;;;;;;5064559;28;20016;-77
2023/11/12 14:11:43;;;;;;;3.00;2.20;;;9.50;99.90;;;;;;5067731;28;20392;-78
2023/11/12 14:14:09;;;;;;;3.05;1.92;;;9.50;99.90;;;;;;5069133;28;20478;-77
2023/11/12 14:16:38;;;;;;;4.60;1.73;;;9.60;99.90;;;;;;5058014;28;20033;-78
2023/11/12 14:19:10;;;;;;;2.95;1.92;;;9.50;99.90;;;;;;5063747;28;20052;-78
2023/11/12 14:21:38;;;;;;;5.35;2.28;;;9.60;99.90;;;;;;5063803;28;20470;-77
2023/11/12 14:24:05;;;;;;;4.15;2.25;;;9.60;99.90;;;;;;5065448;28;20070;-77
2023/11/12 14:26:30;;;;;;;2.15;1.95;;;9.60;99.90;;;;;;5063577;28;20010;-78
2023/11/12 14:28:56;;;;;;;3.97;2.08;;;9.60;99.90;;;;;;5061424;28;20017;-77
2023/11/12 14:31:21;;;;;;;3.05;2.05;;;9.50;99.90;;;;;;5060257;28;20017;-78
2023/11/12 14:33:47;;;;;;;4.25;2.75;;;9.60;99.90;;;;;;5066441;28;20393;-77
2023/11/12 14:36:13;;;;;;;4.40;2.40;;;9.50;99.90;;;;;;5066417;28;20067;-77
2023/11/12 14:38:38;;;;;;;3.25;2.25;;;9.60;99.90;;;;;;5082851;28;20013;-78
2023/11/12 14:41:04;;;;;;;3.85;2.40;;;9.60;99.90;;;;;;5062130;28;20021;-77
2023/11/12 14:43:29;;;;;;;3.60;2.25;;;9.60;99.90;;;;;;5062585;28;20017;-78
2023/11/12 14:45:55;;;;;;;4.20;2.22;;;9.60;99.90;;;;;;5066083;28;20028;-77
2023/11/12 14:48:20;;;;;;;5.90;2.55;;;9.50;99.90;;;;;;5066787;28;20043;-77
2023/11/12 14:50:46;;;;;;;4.68;2.08;;;9.50;99.90;;;;;;5059840;28;20047;-77
2023/11/12 14:53:12;;;;;;;3.28;2.13;;;9.50;99.90;;;;;;5061772;28;20555;-78
2023/11/12 14:55:40;;;;;;;2.30;1.85;;;9.50;99.90;;;;;;5063967;28;20025;-77
2023/11/12 14:58:06;;;;;;;3.25;1.80;;;9.60;99.90;;;;;;5066748;28;20834;-77
2023/11/12 15:00:35;;;;;;;3.22;2.30;;;9.50;99.90;;;;;;5067722;28;20035;-77
2023/11/12 15:03:04;;;;;;;3.03;1.80;;;9.60;99.90;;;;;;5061146;28;20020;-76
2023/11/12 15:05:31;;;;;;;6.80;2.40;;;9.50;99.90;;;;;;5079647;28;20044;-78
2023/11/12 15:07:57;;;;;;;2.33;1.90;;;9.50;99.90;;;;;;5065890;28;20018;-77
2023/11/12 15:10:22;;;;;;;2.53;1.67;;;9.50;99.90;;;;;;5063219;28;20028;-78
2023/11/12 15:12:48;;;;;;;2.65;1.88;;;9.50;99.90;;;;;;5068509;28;20096;-77
2023/11/12 15:15:14;;;;;;;3.38;1.83;;;9.50;99.90;;;;;;5075889;28;20476;-77
2023/11/12 15:17:39;;;;;;;5.35;1.95;;;9.50;99.90;;;;;;5062494;28;20009;-77
2023/11/12 15:20:09;;;;;;;4.47;1.70;;;9.50;99.90;;;;;;5064064;28;20096;-77
2023/11/12 15:22:37;;;;;;;1.95;1.45;;;9.50;99.90;;;;;;5079596;28;20047;-78
2023/11/12 15:25:03;;;;;;;2.03;1.60;;;9.50;99.90;;;;;;5064854;28;20489;-78
2023/11/12 15:27:29;;;;;;;4.13;1.52;;;9.50;99.90;;;;;;5059119;28;20020;-77
2023/11/12 15:29:55;;;;;;;2.22;1.63;;;9.50;99.90;;;;;;5063185;28;20044;-78
2023/11/12 15:32:21;;;;;;;2.90;1.60;;;9.50;99.90;;;;;;5064576;28;20111;-77
2023/11/12 15:34:46;;;;;;;3.65;2.15;;;9.50;99.90;;;;;;5066773;28;20104;-77
2023/11/12 15:37:12;;;;;;;2.95;1.92;;;9.50;99.90;;;;;;5061397;28;20048;-77
2023/11/12 15:39:37;;;;;;;1.65;1.30;;;9.50;99.90;;;;;;5060158;28;20009;-78
2023/11/12 15:42:03;;;;;;;1.67;1.40;;;9.50;99.90;;;;;;5063463;28;20024;-77
2023/11/12 15:44:29;;;;;;;3.97;2.17;;;9.50;99.90;;;;;;5065368;28;20028;-75
2023/11/12 15:46:54;;;;;;;3.90;1.73;;;9.50;99.90;;;;;;5069543;28;20487;-77
2023/11/12 15:49:20;;;;;;;3.33;1.48;;;9.50;99.90;;;;;;5062009;28;20081;-77
2023/11/12 15:51:47;;;;;;;2.28;1.73;;;9.50;99.90;;;;;;5065599;28;20021;-77
2023/11/12 15:54:15;;;;;;;3.28;1.55;;;9.50;99.90;;;;;;5068619;28;20030;-77
2023/11/12 15:56:41;;;;;;;3.38;1.23;;;9.40;99.90;;;;;;5070645;28;20481;-78
2023/11/12 15:59:07;;;;;;;4.63;1.67;;;9.50;99.90;;;;;;5071899;28;20064;-78
2023/11/12 16:01:34;;;;;;;7.03;1.60;;;9.50;99.90;;;;;;5062104;28;20021;-77
2023/11/12 16:04:04;;;;;;;3.78;1.90;;;9.40;99.90;;;;;;5067621;28;20013;-78
2023/11/12 16:06:33;;;;;;;2.88;1.40;;;9.50;99.90;;;;;;5064962;28;20607;-77
2023/11/12 16:08:59;;;;;;;3.90;1.55;;;9.50;99.90;;;;;;5069803;28;20545;-77
2023/11/12 16:11:30;;;;;;;3.83;1.42;;;9.50;99.90;;;;;;5068937;28;20127;-77
2023/11/12 16:13:55;;;;;;;2.45;1.05;;;9.50;99.90;;;;;;5064505;28;20020;-77
2023/11/12 16:16:21;;;;;;;1.48;1.00;;;9.50;99.90;;;;;;5066201;28;20032;-77
2023/11/12 16:18:46;;;;;;;2.75;1.40;;;9.50;99.90;;;;;;5067022;28;20020;-78
2023/11/12 16:21:12;;;;;;;4.53;1.38;;;9.50;99.90;;;;;;5069472;28;20032;-77
2023/11/12 16:23:38;;;;;;;2.72;1.30;;;9.50;99.90;;;;;;5064603;28;20017;-78
2023/11/12 16:26:03;;;;;;;2.78;1.40;;;9.50;99.90;;;;;;5066276;28;20665;-76
2023/11/12 16:28:29;;;;;;;2.33;1.25;;;9.50;99.90;;;;;;5064034;28;20040;-77
2023/11/12 16:30:57;;;;;;;1.88;1.20;;;9.50;99.90;;;;;;5070337;28;20095;-77
2023/11/12 16:33:23;;;;;;;3.15;1.20;;;9.50;99.90;;;;;;5068155;28;20063;-78
2023/11/12 16:35:49;;;;;;;2.10;1.20;;;9.50;99.90;;;;;;5064846;28;20052;-77
2023/11/12 16:38:14;;;;;;;1.70;1.10;;;9.50;99.90;;;;;;5068169;28;20028;-78
2023/11/12 16:40:40;;;;;;;2.30;1.40;;;9.50;99.90;;;;;;5082031;28;20024;-77
2023/11/12 16:43:06;;;;;;;2.47;1.45;;;9.50;99.90;;;;;;5069775;28;20048;-77
2023/11/12 16:45:31;;;;;;;1.85;1.40;;;9.50;99.90;;;;;;5070841;28;20035;-77
2023/11/12 16:47:58;;;;;;;2.05;1.60;;;9.50;99.90;;;;;;5064735;28;20021;-77
2023/11/12 16:50:24;;;;;;;3.83;1.75;;;9.50;99.90;;;;;;5066856;28;20027;-76
2023/11/12 16:52:50;;;;;;;2.25;1.80;;;9.50;99.90;;;;;;5067273;28;20017;-76
2023/11/12 16:55:16;;;;;;;2.75;1.88;;;9.50;99.90;;;;;;5069201;28;20027;-78